TimeMDT,TemperatureF,Dew PointF,Humidity,Sea Level PressureIn,VisibilityMPH,Wind Direction,Wind SpeedMPH,Gust SpeedMPH,PrecipitationIn,Events,Conditions,WindDirDegrees,DateUTC
12:53 AM,32.0,28.0,85,30.23,10.0,SE,3.5,-,N/A,,Clear,140,2012-10-10 06:53:00
1:53 AM,30.9,27.0,85,30.22,10.0,Calm,Calm,-,N/A,,Clear,0,2012-10-10 07:53:00
2:53 AM,30.0,26.1,85,30.21,10.0,Calm,Calm,-,N/A,,Clear,0,2012-10-10 08:53:00
3:53 AM,28.9,26.1,89,30.20,10.0,East,5.8,-,N/A,,Clear,100,2012-10-10 09:53:00
4:53 AM,27.0,24.1,89,30.19,10.0,Calm,Calm,-,N/A,,Clear,0,2012-10-10 10:53:00
5:53 AM,27.0,24.1,89,30.18,10.0,West,3.5,-,N/A,,Clear,280,2012-10-10 11:53:00
6:53 AM,26.1,23.0,88,30.20,10.0,North,3.5,-,N/A,,Clear,350,2012-10-10 12:53:00
7:53 AM,30.9,27.0,85,30.19,9.0,Calm,Calm,-,N/A,,Clear,0,2012-10-10 13:53:00
8:53 AM,37.0,32.0,82,30.18,10.0,Calm,Calm,-,N/A,,Clear,0,2012-10-10 14:53:00
9:53 AM,42.1,34.0,73,30.15,10.0,Calm,Calm,-,N/A,,Clear,0,2012-10-10 15:53:00
10:53 AM,48.9,36.0,61,30.12,10.0,Calm,Calm,-,N/A,,Clear,0,2012-10-10 16:53:00
11:53 AM,55.0,37.9,53,30.07,9.0,Variable,6.9,-,N/A,,Clear,0,2012-10-10 17:53:00
12:53 PM,61.0,37.9,42,30.00,10.0,SE,8.1,-,N/A,,Clear,140,2012-10-10 18:53:00
1:53 PM,68.0,33.1,27,29.94,10.0,Variable,4.6,-,N/A,,Clear,0,2012-10-10 19:53:00
2:53 PM,70.0,30.0,23,29.91,8.0,Calm,Calm,-,N/A,,Clear,0,2012-10-10 20:53:00
3:53 PM,71.1,30.0,22,29.89,10.0,NW,3.5,-,N/A,,Clear,320,2012-10-10 21:53:00
4:53 PM,68.0,28.0,22,29.89,10.0,NNW,5.8,-,N/A,,Clear,330,2012-10-10 22:53:00
5:53 PM,62.1,32.0,32,29.91,10.0,Calm,Calm,-,N/A,,Clear,0,2012-10-10 23:53:00
6:53 PM,55.0,33.1,43,29.94,10.0,SE,4.6,-,N/A,,Clear,140,2012-10-11 00:53:00
7:53 PM,55.9,37.0,49,29.94,10.0,SSE,10.4,-,N/A,,Clear,150,2012-10-11 01:53:00
8:53 PM,48.0,37.0,66,29.94,10.0,East,9.2,-,N/A,,Clear,100,2012-10-11 02:53:00
9:53 PM,46.9,37.0,68,29.93,10.0,East,9.2,-,N/A,,Clear,90,2012-10-11 03:53:00
10:53 PM,46.0,37.0,71,29.91,10.0,East,8.1,-,N/A,,Clear,80,2012-10-11 04:53:00
11:53 PM,44.1,36.0,73,29.90,10.0,East,6.9,-,N/A,,Clear,80,2012-10-11 05:53:00